createdAt,value
2022-09-10T00:00:11.394Z,100.00
2022-09-10T00:03:13.911Z,100.00
2022-09-10T00:06:18.832Z,100.00
2022-09-10T00:09:21.417Z,100.00
2022-09-10T00:12:24.314Z,100.00
2022-09-10T00:15:27.078Z,100.00
2022-09-10T00:18:30.518Z,100.00
2022-09-10T00:21:33.645Z,100.00
2022-09-10T00:24:36.593Z,100.00
2022-09-10T00:27:40.491Z,100.00
2022-09-10T00:30:48.911Z,100.00
2022-09-10T00:33:52.711Z,100.00
2022-09-10T00:36:55.615Z,100.00
2022-09-10T00:39:59.354Z,100.00
2022-09-10T00:43:02.399Z,100.00
2022-09-10T00:46:05.293Z,100.00
2022-09-10T00:49:30.856Z,100.00
2022-09-10T00:52:39.390Z,100.00
2022-09-10T00:55:50.397Z,100.00
2022-09-10T00:58:53.349Z,100.00
2022-09-10T01:01:56.380Z,100.00
2022-09-10T01:05:00.656Z,100.00
2022-09-10T01:08:04.046Z,100.00
2022-09-10T01:11:26.562Z,100.00
2022-09-10T01:14:48.209Z,100.00
2022-09-10T01:18:30.231Z,100.00
2022-09-10T01:21:56.062Z,100.00
2022-09-10T01:25:16.091Z,100.00
2022-09-10T01:28:33.785Z,100.00
2022-09-10T01:31:53.259Z,100.00
2022-09-10T01:35:23.262Z,100.00
2022-09-10T01:38:35.507Z,100.00
2022-09-10T01:41:39.547Z,100.00
2022-09-10T01:44:43.675Z,100.00
2022-09-10T01:47:59.247Z,100.00
2022-09-10T01:51:35.605Z,100.00
2022-09-10T01:55:03.220Z,100.00
2022-09-10T01:58:33.600Z,100.00
2022-09-10T02:01:46.168Z,100.00
2022-09-10T02:04:50.513Z,100.00
2022-09-10T02:07:58.589Z,100.00
2022-09-10T02:11:06.483Z,100.00
2022-09-10T02:14:09.714Z,100.00
2022-09-10T02:17:16.228Z,100.00
2022-09-10T02:20:20.512Z,100.00
2022-09-10T02:23:31.475Z,100.00
2022-09-10T02:26:35.102Z,100.00
2022-09-10T02:29:39.189Z,100.00
2022-09-10T02:32:42.910Z,100.00
2022-09-10T02:35:49.808Z,100.00
2022-09-10T02:38:53.681Z,100.00
2022-09-10T02:41:58.669Z,100.00
2022-09-10T02:45:01.514Z,100.00
2022-09-10T02:48:04.460Z,100.00
2022-09-10T02:51:07.443Z,100.00
2022-09-10T02:54:12.165Z,100.00
2022-09-10T02:57:14.808Z,100.00
2022-09-10T03:00:20.279Z,100.00
2022-09-10T03:03:23.402Z,100.00
2022-09-10T03:06:27.776Z,100.00
2022-09-10T03:09:30.368Z,100.00
2022-09-10T03:12:33.254Z,100.00
2022-09-10T03:15:35.817Z,100.00
2022-09-10T03:18:42.998Z,100.00
2022-09-10T03:21:47.543Z,100.00
2022-09-10T03:24:50.573Z,100.00
2022-09-10T03:27:53.106Z,100.00
2022-09-10T03:30:56.608Z,100.00
2022-09-10T03:34:00.032Z,100.00
2022-09-10T03:37:03.759Z,100.00
2022-09-10T03:40:07.929Z,100.00
2022-09-10T03:43:13.087Z,100.00
2022-09-10T03:46:16.118Z,100.00
2022-09-10T03:49:19.691Z,100.00
2022-09-10T03:52:22.889Z,100.00
2022-09-10T03:55:26.197Z,100.00
2022-09-10T03:58:29.095Z,100.00
2022-09-10T04:01:32.122Z,100.00
2022-09-10T04:04:37.383Z,100.00
2022-09-10T04:07:39.973Z,100.00
2022-09-10T04:10:44.400Z,100.00
2022-09-10T04:13:48.535Z,100.00
2022-09-10T04:16:51.730Z,100.00
2022-09-10T04:19:54.866Z,100.00
2022-09-10T04:22:57.756Z,100.00
2022-09-10T04:26:01.623Z,100.00
2022-09-10T04:29:04.853Z,100.00
2022-09-10T04:32:07.557Z,100.00
2022-09-10T04:35:11.365Z,100.00
2022-09-10T04:38:14.070Z,100.00
2022-09-10T04:41:19.541Z,100.00
2022-09-10T04:44:22.608Z,100.00
2022-09-10T04:47:25.829Z,100.00
2022-09-10T04:50:28.478Z,100.00
2022-09-10T04:53:41.960Z,100.00
2022-09-10T04:56:47.495Z,100.00
2022-09-10T04:59:50.416Z,100.00
2022-09-10T05:02:54.061Z,100.00
2022-09-10T05:05:57.174Z,100.00
2022-09-10T05:08:59.890Z,100.00
2022-09-10T05:12:03.905Z,100.00
2022-09-10T05:15:07.319Z,100.00
2022-09-10T05:18:11.002Z,100.00
2022-09-10T05:21:14.575Z,100.00
2022-09-10T05:24:19.354Z,100.00
2022-09-10T05:27:22.818Z,100.00
2022-09-10T05:30:26.123Z,100.00
2022-09-10T05:33:29.360Z,100.00
2022-09-10T05:36:32.297Z,100.00
2022-09-10T05:39:35.199Z,100.00
2022-09-10T05:42:38.210Z,100.00
2022-09-10T05:45:41.423Z,100.00
2022-09-10T05:48:44.501Z,100.00
2022-09-10T05:51:47.557Z,100.00
2022-09-10T05:54:51.620Z,100.00
2022-09-10T05:57:54.276Z,100.00
2022-09-10T06:00:58.257Z,100.00
2022-09-10T06:04:01.455Z,100.00
2022-09-10T06:07:04.756Z,100.00
2022-09-10T06:10:08.081Z,100.00
2022-09-10T06:13:11.957Z,100.00
2022-09-10T06:16:15.954Z,100.00
2022-09-10T06:19:19.890Z,99.88
2022-09-10T06:22:22.907Z,98.95
2022-09-10T06:25:25.934Z,99.05
2022-09-10T06:28:29.153Z,98.51
2022-09-10T06:31:31.851Z,98.07
2022-09-10T06:34:35.876Z,98.33
2022-09-10T06:37:39.236Z,98.32
2022-09-10T06:40:54.177Z,98.66
2022-09-10T06:43:57.715Z,98.63
2022-09-10T06:47:45.933Z,98.09
2022-09-10T06:50:26.635Z,97.41
2022-09-10T06:53:33.392Z,97.28
2022-09-10T06:56:36.280Z,95.41
2022-09-10T06:59:39.420Z,93.76
2022-09-10T07:02:42.159Z,92.93
2022-09-10T07:05:47.068Z,89.75
2022-09-10T07:08:55.341Z,88.02
2022-09-10T07:11:59.180Z,86.05
2022-09-10T07:15:03.024Z,85.52
2022-09-10T07:18:06.660Z,84.33
2022-09-10T07:21:13.482Z,84.00
2022-09-10T07:24:22.212Z,84.60
2022-09-10T07:27:27.253Z,82.22
2022-09-10T07:30:31.317Z,81.60
2022-09-10T07:33:34.408Z,80.56
2022-09-10T07:36:37.517Z,79.30
2022-09-10T07:39:40.443Z,78.91
2022-09-10T07:42:44.557Z,79.38
2022-09-10T07:45:47.299Z,79.86
2022-09-10T07:48:58.510Z,81.31
2022-09-10T07:52:01.634Z,81.62
2022-09-10T07:55:05.716Z,81.63
2022-09-10T07:58:09.916Z,81.53
2022-09-10T08:01:14.166Z,81.37
2022-09-10T08:04:18.079Z,77.74
2022-09-10T08:07:20.735Z,75.48
2022-09-10T08:10:23.717Z,73.92
2022-09-10T08:13:29.985Z,68.58
2022-09-10T08:16:33.509Z,62.47
2022-09-10T08:19:37.014Z,60.85
2022-09-10T08:22:39.985Z,60.43
2022-09-10T08:25:51.556Z,62.55
2022-09-10T08:28:57.952Z,63.97
2022-09-10T08:32:01.273Z,64.31
2022-09-10T08:35:05.913Z,65.40
2022-09-10T08:38:10.549Z,65.86
2022-09-10T08:41:19.497Z,65.89
2022-09-10T08:44:28.466Z,66.93
2022-09-10T08:47:50.099Z,67.63
2022-09-10T08:51:10.931Z,68.58
2022-09-10T08:54:24.297Z,69.32
2022-09-10T08:57:41.903Z,69.02
2022-09-10T09:00:46.752Z,66.37
2022-09-10T09:03:52.589Z,66.48
2022-09-10T09:07:15.236Z,64.33
2022-09-10T09:10:25.000Z,62.41
2022-09-10T09:13:33.923Z,60.76
2022-09-10T09:16:55.116Z,59.32
2022-09-10T09:20:20.376Z,59.04
2022-09-10T09:23:36.183Z,59.28
2022-09-10T09:26:45.092Z,58.97
2022-09-10T09:29:56.037Z,58.34
2022-09-10T09:33:10.540Z,55.21
2022-09-10T09:36:18.397Z,55.81
2022-09-10T09:39:38.977Z,52.50
2022-09-10T09:43:03.320Z,53.81
2022-09-10T09:46:15.913Z,54.69
2022-09-10T09:49:18.914Z,54.80
2022-09-10T09:52:24.385Z,52.99
2022-09-10T09:55:31.068Z,53.79
2022-09-10T09:58:36.675Z,52.74
2022-09-10T10:01:42.809Z,54.04
2022-09-10T10:04:59.981Z,54.33
2022-09-10T10:08:02.848Z,55.44
2022-09-10T10:11:06.527Z,54.60
2022-09-10T10:14:22.022Z,53.71
2022-09-10T10:17:24.789Z,51.17
2022-09-10T10:20:38.961Z,51.57
2022-09-10T10:23:42.415Z,50.25
2022-09-10T10:26:48.779Z,48.98
2022-09-10T10:30:02.315Z,49.28
2022-09-10T10:33:05.294Z,49.56
2022-09-10T10:36:47.120Z,49.08
2022-09-10T10:40:14.623Z,48.97
2022-09-10T10:43:44.947Z,52.01
2022-09-10T10:47:13.574Z,52.93
2022-09-10T10:50:23.854Z,53.91
2022-09-10T10:53:45.355Z,51.79
2022-09-10T10:57:25.822Z,49.85
2022-09-10T11:00:38.132Z,50.36
2022-09-10T11:03:46.407Z,50.61
2022-09-10T11:07:00.983Z,50.71
2022-09-10T11:10:15.583Z,50.92
2022-09-10T11:13:22.098Z,49.58
2022-09-10T11:16:40.314Z,49.59
2022-09-10T11:19:53.305Z,48.06
2022-09-10T11:23:46.969Z,49.38
2022-09-10T11:27:07.339Z,48.42
2022-09-10T11:30:16.241Z,48.06
2022-09-10T11:33:40.036Z,48.84
2022-09-10T11:36:56.069Z,49.09
2022-09-10T11:40:05.824Z,48.11
2022-09-10T11:43:19.541Z,48.00
2022-09-10T11:46:32.810Z,46.52
2022-09-10T11:49:48.273Z,46.24
2022-09-10T11:52:53.428Z,46.91
2022-09-10T11:56:18.242Z,48.16
2022-09-10T12:00:02.836Z,48.54
2022-09-10T12:03:25.627Z,48.25
2022-09-10T12:06:42.867Z,47.69
2022-09-10T12:09:53.651Z,46.16
2022-09-10T12:12:56.698Z,47.06
2022-09-10T12:16:06.184Z,48.27
2022-09-10T12:19:37.366Z,47.38
2022-09-10T12:22:41.917Z,45.85
2022-09-10T12:25:45.500Z,46.56
2022-09-10T12:29:01.063Z,48.00
2022-09-10T12:32:28.627Z,48.22
2022-09-10T12:35:38.174Z,47.33
2022-09-10T12:39:12.747Z,46.52
2022-09-10T12:42:45.764Z,46.79
2022-09-10T12:46:06.718Z,48.34
2022-09-10T12:49:14.074Z,48.62
2022-09-10T12:52:37.010Z,47.66
2022-09-10T12:55:54.607Z,45.38
2022-09-10T12:59:34.612Z,45.65
2022-09-10T13:02:46.375Z,45.08
2022-09-10T13:05:53.386Z,45.20
2022-09-10T13:08:56.234Z,43.74
2022-09-10T13:12:04.173Z,44.19
2022-09-10T13:15:16.952Z,44.15
2022-09-10T13:18:27.124Z,43.02
2022-09-10T13:21:29.670Z,42.73
2022-09-10T13:24:38.446Z,43.70
2022-09-10T13:27:41.733Z,44.31
2022-09-10T13:30:44.742Z,45.25
2022-09-10T13:33:51.338Z,45.97
2022-09-10T13:36:57.144Z,46.42
2022-09-10T13:40:21.540Z,46.26
2022-09-10T13:43:39.814Z,45.25
2022-09-10T13:46:50.790Z,42.67
2022-09-10T13:49:59.480Z,43.67
2022-09-10T13:53:08.285Z,44.15
2022-09-10T13:56:17.929Z,44.09
2022-09-10T13:59:30.819Z,43.81
2022-09-10T14:02:41.502Z,43.61
2022-09-10T14:05:52.065Z,41.88
2022-09-10T14:08:59.782Z,42.39
2022-09-10T14:12:07.935Z,42.43
2022-09-10T14:15:17.785Z,42.96
2022-09-10T14:18:21.679Z,43.09
2022-09-10T14:21:27.590Z,41.71
2022-09-10T14:24:35.002Z,40.02
2022-09-10T14:27:39.199Z,40.26
2022-09-10T14:30:43.844Z,41.31
2022-09-10T14:33:46.632Z,41.95
2022-09-10T14:36:49.495Z,42.76
2022-09-10T14:39:52.415Z,42.87
2022-09-10T14:43:25.775Z,43.35
2022-09-10T14:46:57.369Z,44.51
2022-09-10T14:50:25.277Z,44.10
2022-09-10T14:53:27.985Z,44.89
2022-09-10T14:56:38.060Z,45.63
2022-09-10T14:59:44.108Z,45.65
2022-09-10T15:02:48.471Z,45.10
2022-09-10T15:05:51.466Z,45.14
2022-09-10T15:08:56.277Z,45.28
2022-09-10T15:12:12.103Z,45.59
2022-09-10T15:15:17.582Z,45.83
2022-09-10T15:18:22.691Z,46.27
2022-09-10T15:21:25.774Z,46.19
2022-09-10T15:24:28.724Z,46.07
2022-09-10T15:27:31.631Z,46.47
2022-09-10T15:30:35.934Z,46.39
2022-09-10T15:33:40.147Z,46.46
2022-09-10T15:36:42.852Z,46.85
2022-09-10T15:39:47.057Z,47.43
2022-09-10T15:42:49.891Z,46.98
2022-09-10T15:45:52.888Z,47.10
2022-09-10T15:48:59.466Z,47.58
2022-09-10T15:52:03.404Z,48.20
2022-09-10T15:55:07.118Z,48.75
2022-09-10T15:58:10.099Z,49.33
2022-09-10T16:01:12.912Z,49.58
2022-09-10T16:04:15.834Z,50.04
2022-09-10T16:07:18.561Z,51.11
2022-09-10T16:10:21.414Z,51.12
2022-09-10T16:13:26.053Z,51.29
2022-09-10T16:16:29.644Z,51.89
2022-09-10T16:19:32.412Z,51.86
2022-09-10T16:22:35.364Z,51.45
2022-09-10T16:25:39.346Z,51.69
2022-09-10T16:28:56.385Z,51.36
2022-09-10T16:31:59.806Z,51.69
2022-09-10T16:35:04.217Z,51.81
2022-09-10T16:38:07.054Z,52.27
2022-09-10T16:41:14.718Z,52.76
2022-09-10T16:44:18.605Z,53.23
2022-09-10T16:47:21.501Z,53.89
2022-09-10T16:50:24.092Z,54.38
2022-09-10T16:53:27.003Z,54.40
2022-09-10T16:56:33.960Z,54.52
2022-09-10T16:59:36.930Z,54.91
2022-09-10T17:02:40.976Z,55.18
2022-09-10T17:05:46.740Z,55.29
2022-09-10T17:08:50.197Z,55.50
2022-09-10T17:11:53.608Z,56.12
2022-09-10T17:14:56.215Z,56.33
2022-09-10T17:17:59.117Z,56.70
2022-09-10T17:21:01.703Z,56.60
2022-09-10T17:24:07.325Z,56.70
2022-09-10T17:27:11.495Z,56.93
2022-09-10T17:30:14.339Z,57.25
2022-09-10T17:33:16.987Z,57.14
2022-09-10T17:36:19.848Z,57.25
2022-09-10T17:39:22.810Z,58.63
2022-09-10T17:42:25.660Z,59.46
2022-09-10T17:45:28.972Z,60.14
2022-09-10T17:48:32.846Z,60.90
2022-09-10T17:51:35.577Z,61.22
2022-09-10T17:54:38.437Z,62.27
2022-09-10T17:57:41.051Z,63.19
2022-09-10T18:00:49.516Z,63.64
2022-09-10T18:03:53.426Z,64.07
2022-09-10T18:06:56.090Z,64.31
2022-09-10T18:09:59.250Z,65.13
2022-09-10T18:13:02.379Z,64.80
2022-09-10T18:16:07.519Z,63.83
2022-09-10T18:19:14.523Z,63.64
2022-09-10T18:22:17.505Z,63.97
2022-09-10T18:25:20.061Z,64.94
2022-09-10T18:28:22.949Z,66.67
2022-09-10T18:31:40.868Z,67.84
2022-09-10T18:34:43.813Z,71.20
2022-09-10T18:37:51.800Z,71.46
2022-09-10T18:40:56.307Z,72.92
2022-09-10T18:44:01.251Z,73.60
2022-09-10T18:47:17.662Z,73.78
2022-09-10T18:50:26.567Z,73.14
2022-09-10T18:53:29.558Z,74.01
2022-09-10T18:56:32.357Z,74.83
2022-09-10T18:59:35.398Z,74.99
2022-09-10T19:02:38.082Z,76.00
2022-09-10T19:05:41.045Z,76.50
2022-09-10T19:08:55.390Z,77.66
2022-09-10T19:12:00.481Z,78.78
2022-09-10T19:15:03.111Z,79.78
2022-09-10T19:18:06.657Z,80.50
2022-09-10T19:21:10.137Z,81.21
2022-09-10T19:24:14.712Z,81.18
2022-09-10T19:27:17.296Z,81.74
2022-09-10T19:30:20.206Z,81.84
2022-09-10T19:33:22.712Z,81.36
2022-09-10T19:36:31.698Z,81.70
2022-09-10T19:39:34.374Z,82.13
2022-09-10T19:42:37.266Z,81.73
2022-09-10T19:45:39.846Z,80.71
2022-09-10T19:48:43.449Z,80.77
2022-09-10T19:51:46.536Z,79.63
2022-09-10T19:54:49.735Z,78.84
2022-09-10T19:57:53.160Z,77.76
2022-09-10T20:00:56.022Z,76.21
2022-09-10T20:04:01.745Z,75.73
2022-09-10T20:07:04.390Z,75.18
2022-09-10T20:10:07.691Z,74.82
2022-09-10T20:13:12.037Z,74.65
2022-09-10T20:16:16.945Z,74.46
2022-09-10T20:19:21.895Z,74.48
2022-09-10T20:22:24.734Z,73.64
2022-09-10T20:25:28.658Z,72.96
2022-09-10T20:28:31.479Z,72.28
2022-09-10T20:31:36.666Z,71.44
2022-09-10T20:34:39.518Z,70.50
2022-09-10T20:37:42.237Z,69.99
2022-09-10T20:40:45.054Z,69.94
2022-09-10T20:43:51.988Z,69.77
2022-09-10T20:46:54.783Z,69.92
2022-09-10T20:49:58.280Z,70.30
2022-09-10T20:53:01.787Z,70.30
2022-09-10T20:56:07.051Z,70.56
2022-09-10T20:59:12.249Z,70.66
2022-09-10T21:02:14.959Z,71.18
2022-09-10T21:05:19.128Z,72.00
2022-09-10T21:08:21.810Z,72.34
2022-09-10T21:11:27.062Z,72.76
2022-09-10T21:14:29.605Z,72.52
2022-09-10T21:17:32.398Z,73.18
2022-09-10T21:20:35.659Z,74.02
2022-09-10T21:23:46.785Z,74.62
2022-09-10T21:26:50.244Z,75.06
2022-09-10T21:29:53.070Z,75.47
2022-09-10T21:32:55.638Z,74.91
2022-09-10T21:36:06.342Z,74.58
2022-09-10T21:39:15.709Z,73.88
2022-09-10T21:42:18.707Z,73.37
2022-09-10T21:45:25.641Z,72.12
2022-09-10T21:48:35.904Z,71.81
2022-09-10T21:51:38.737Z,71.45
2022-09-10T21:54:41.703Z,71.66
2022-09-10T21:57:44.342Z,71.41
2022-09-10T22:00:47.178Z,71.27
2022-09-10T22:03:52.658Z,71.35
2022-09-10T22:06:55.771Z,70.93
2022-09-10T22:09:59.256Z,71.32
2022-09-10T22:13:01.774Z,71.51
2022-09-10T22:16:09.448Z,71.52
2022-09-10T22:19:14.841Z,71.95
2022-09-10T22:22:17.667Z,72.29
2022-09-10T22:25:20.218Z,72.90
2022-09-10T22:28:23.166Z,73.33
2022-09-10T22:31:28.629Z,74.12
2022-09-10T22:34:31.586Z,74.97
2022-09-10T22:37:35.622Z,75.55
2022-09-10T22:40:39.083Z,76.22
2022-09-10T22:43:42.796Z,76.85
2022-09-10T22:46:46.168Z,78.80
2022-09-10T22:49:48.765Z,79.31
2022-09-10T22:52:51.690Z,80.84
2022-09-10T22:55:54.265Z,81.59
2022-09-10T22:58:58.737Z,82.20
2022-09-10T23:02:01.924Z,83.55
2022-09-10T23:05:06.622Z,84.63
2022-09-10T23:08:09.155Z,84.63
2022-09-10T23:11:35.759Z,86.36
2022-09-10T23:14:39.092Z,87.36
2022-09-10T23:17:42.234Z,88.11
2022-09-10T23:20:44.927Z,88.68
2022-09-10T23:23:50.010Z,89.42
2022-09-10T23:26:53.874Z,90.21
2022-09-10T23:29:56.897Z,91.29
2022-09-10T23:32:59.425Z,91.85
2022-09-10T23:36:04.114Z,92.59
2022-09-10T23:39:11.225Z,93.47
2022-09-10T23:42:14.265Z,94.39
2022-09-10T23:45:17.103Z,95.33
2022-09-10T23:48:19.991Z,95.75
2022-09-10T23:51:23.076Z,95.69
2022-09-10T23:54:26.078Z,96.20
2022-09-10T23:57:28.726Z,96.55
